sensor_id;sensor_type;location;lat;lon;timestamp;pressure;altitude;pressure_sealevel;temperature;humidity
73267;BME280;61495;53.400;7.608;2024-01-10T00:01:31;103499.28;;;-4.76;100.00
73267;BME280;61495;53.400;7.608;2024-01-10T00:03:56;103485.34;;;-4.77;100.00
73267;BME280;61495;53.400;7.608;2024-01-10T00:06:23;103484.56;;;-4.80;100.00
73267;BME280;61495;53.400;7.608;2024-01-10T00:08:49;103487.09;;;-4.77;100.00
73267;BME280;61495;53.400;7.608;2024-01-10T00:11:15;103485.50;;;-4.83;100.00
73267;BME280;61495;53.400;7.608;2024-01-10T00:13:40;103481.16;;;-4.82;100.00
73267;BME280;61495;53.400;7.608;2024-01-10T00:16:06;103472.41;;;-4.81;100.00
73267;BME280;61495;53.400;7.608;2024-01-10T00:18:31;103468.16;;;-4.85;100.00
73267;BME280;61495;53.400;7.608;2024-01-10T00:20:57;103465.47;;;-4.82;100.00
73267;BME280;61495;53.400;7.608;2024-01-10T00:23:22;103464.75;;;-4.87;100.00
73267;BME280;61495;53.400;7.608;2024-01-10T00:25:48;103475.06;;;-4.83;100.00
73267;BME280;61495;53.400;7.608;2024-01-10T00:28:14;103457.72;;;-4.87;100.00
73267;BME280;61495;53.400;7.608;2024-01-10T00:30:43;103463.78;;;-4.85;100.00
73267;BME280;61495;53.400;7.608;2024-01-10T00:33:09;103456.94;;;-4.89;100.00
73267;BME280;61495;53.400;7.608;2024-01-10T00:35:34;103459.53;;;-4.89;100.00
73267;BME280;61495;53.400;7.608;2024-01-10T00:37:59;103447.28;;;-4.87;100.00
73267;BME280;61495;53.400;7.608;2024-01-10T00:40:25;103453.38;;;-4.86;100.00
73267;BME280;61495;53.400;7.608;2024-01-10T00:42:50;103445.59;;;-4.88;100.00
73267;BME280;61495;53.400;7.608;2024-01-10T00:45:16;103445.59;;;-4.88;100.00
73267;BME280;61495;53.400;7.608;2024-01-10T00:47:41;103448.13;;;-4.85;100.00
73267;BME280;61495;53.400;7.608;2024-01-10T00:50:07;103448.97;;;-4.84;100.00
73267;BME280;61495;53.400;7.608;2024-01-10T00:52:33;103447.19;;;-4.84;100.00
73267;BME280;61495;53.400;7.608;2024-01-10T00:54:58;103440.31;;;-4.86;100.00
73267;BME280;61495;53.400;7.608;2024-01-10T00:57:24;103450.72;;;-4.85;100.00
73267;BME280;61495;53.400;7.608;2024-01-10T00:59:49;103451.59;;;-4.84;100.00
73267;BME280;61495;53.400;7.608;2024-01-10T01:02:14;103449.94;;;-4.88;100.00
73267;BME280;61495;53.400;7.608;2024-01-10T01:04:40;103453.44;;;-4.88;100.00
73267;BME280;61495;53.400;7.608;2024-01-10T01:07:05;103448.13;;;-4.86;100.00
73267;BME280;61495;53.400;7.608;2024-01-10T01:09:31;103448.19;;;-4.88;100.00
73267;BME280;61495;53.400;7.608;2024-01-10T01:11:56;103450.72;;;-4.85;100.00
73267;BME280;61495;53.400;7.608;2024-01-10T01:14:22;103451.63;;;-4.86;100.00
73267;BME280;61495;53.400;7.608;2024-01-10T01:16:47;103449.88;;;-4.85;100.00
73267;BME280;61495;53.400;7.608;2024-01-10T01:19:12;103449.88;;;-4.85;100.00
73267;BME280;61495;53.400;7.608;2024-01-10T01:21:38;103455.09;;;-4.85;100.00
73267;BME280;61495;53.400;7.608;2024-01-10T01:24:03;103448.13;;;-4.85;100.00
73267;BME280;61495;53.400;7.608;2024-01-10T01:26:28;103445.50;;;-4.85;100.00
73267;BME280;61495;53.400;7.608;2024-01-10T01:28:54;103453.38;;;-4.86;100.00
73267;BME280;61495;53.400;7.608;2024-01-10T01:31:19;103448.13;;;-4.86;100.00
73267;BME280;61495;53.400;7.608;2024-01-10T01:33:45;103447.19;;;-4.84;100.00
73267;BME280;61495;53.400;7.608;2024-01-10T01:36:11;103456.81;;;-4.84;100.00
73267;BME280;61495;53.400;7.608;2024-01-10T01:38:36;103445.59;;;-4.88;100.00
73267;BME280;61495;53.400;7.608;2024-01-10T01:41:01;103437.84;;;-4.92;100.00
73267;BME280;61495;53.400;7.608;2024-01-10T01:43:27;103447.28;;;-4.87;100.00
73267;BME280;61495;53.400;7.608;2024-01-10T01:45:55;103444.56;;;-4.84;100.00
73267;BME280;61495;53.400;7.608;2024-01-10T01:48:22;103450.72;;;-4.85;100.00
73267;BME280;61495;53.400;7.608;2024-01-10T01:50:51;103441.94;;;-4.82;100.00
73267;BME280;61495;53.400;7.608;2024-01-10T01:53:17;103445.41;;;-4.82;100.00
73267;BME280;61495;53.400;7.608;2024-01-10T01:55:44;103443.69;;;-4.83;100.00
73267;BME280;61495;53.400;7.608;2024-01-10T01:58:11;103438.56;;;-4.86;100.00
73267;BME280;61495;53.400;7.608;2024-01-10T02:00:38;103435.81;;;-4.81;100.00
73267;BME280;61495;53.400;7.608;2024-01-10T02:03:13;103430.59;;;-4.81;100.00
73267;BME280;61495;53.400;7.608;2024-01-10T02:05:38;103434.09;;;-4.82;100.00
73267;BME280;61495;53.400;7.608;2024-01-10T02:08:04;103439.25;;;-4.81;100.00
73267;BME280;61495;53.400;7.608;2024-01-10T02:10:29;103433.94;;;-4.78;100.00
73267;BME280;61495;53.400;7.608;2024-01-10T02:12:55;103429.66;;;-4.79;100.00
73267;BME280;61495;53.400;7.608;2024-01-10T02:15:20;103424.50;;;-4.82;100.00
73267;BME280;61495;53.400;7.608;2024-01-10T02:17:46;103421.84;;;-4.80;100.00
73267;BME280;61495;53.400;7.608;2024-01-10T02:20:13;103425.38;;;-4.81;100.00
73267;BME280;61495;53.400;7.608;2024-01-10T02:22:39;103434.78;;;-4.76;100.00
73267;BME280;61495;53.400;7.608;2024-01-10T02:25:08;103427.75;;;-4.74;100.00
73267;BME280;61495;53.400;7.608;2024-01-10T02:27:40;103431.25;;;-4.75;100.00
73267;BME280;61495;53.400;7.608;2024-01-10T02:30:07;103422.66;;;-4.78;100.00
73267;BME280;61495;53.400;7.608;2024-01-10T02:32:46;103418.31;;;-4.79;100.00
73267;BME280;61495;53.400;7.608;2024-01-10T02:35:22;103420.03;;;-4.78;100.00
73267;BME280;61495;53.400;7.608;2024-01-10T02:38:14;103426.97;;;-4.77;100.00
73267;BME280;61495;53.400;7.608;2024-01-10T02:40:58;103423.56;;;-4.79;100.00
73267;BME280;61495;53.400;7.608;2024-01-10T02:43:39;103421.03;;;-4.82;100.00
73267;BME280;61495;53.400;7.608;2024-01-10T02:46:24;103422.88;;;-4.86;100.00
73267;BME280;61495;53.400;7.608;2024-01-10T02:48:58;103421.13;;;-4.85;100.00
73267;BME280;61495;53.400;7.608;2024-01-10T02:51:26;103421.91;;;-4.83;100.00
73267;BME280;61495;53.400;7.608;2024-01-10T02:53:52;103415.88;;;-4.85;100.00
73267;BME280;61495;53.400;7.608;2024-01-10T02:56:22;103420.25;;;-4.86;100.00
73267;BME280;61495;53.400;7.608;2024-01-10T02:58:47;103420.31;;;-4.87;100.00
73267;BME280;61495;53.400;7.608;2024-01-10T03:01:13;103413.44;;;-4.91;100.00
73267;BME280;61495;53.400;7.608;2024-01-10T03:03:39;103422.06;;;-4.88;100.00
73267;BME280;61495;53.400;7.608;2024-01-10T03:06:04;103418.59;;;-4.88;100.00
73267;BME280;61495;53.400;7.608;2024-01-10T03:08:30;103422.06;;;-4.88;100.00
73267;BME280;61495;53.400;7.608;2024-01-10T03:10:55;103418.59;;;-4.88;100.00
73267;BME280;61495;53.400;7.608;2024-01-10T03:13:20;103412.56;;;-4.90;100.00
73267;BME280;61495;53.400;7.608;2024-01-10T03:15:45;103408.31;;;-4.94;100.00
73267;BME280;61495;53.400;7.608;2024-01-10T03:18:11;103407.44;;;-4.95;100.00
73267;BME280;61495;53.400;7.608;2024-01-10T03:20:36;103401.28;;;-4.92;100.00
73267;BME280;61495;53.400;7.608;2024-01-10T03:23:01;103407.25;;;-4.87;100.00
73267;BME280;61495;53.400;7.608;2024-01-10T03:25:33;103396.81;;;-4.89;100.00
73267;BME280;61495;53.400;7.608;2024-01-10T03:27:58;103392.44;;;-4.88;100.00
73267;BME280;61495;53.400;7.608;2024-01-10T03:30:23;103389.84;;;-4.88;100.00
73267;BME280;61495;53.400;7.608;2024-01-10T03:32:49;103386.44;;;-4.90;100.00
73267;BME280;61495;53.400;7.608;2024-01-10T03:35:15;103386.38;;;-4.89;100.00
73267;BME280;61495;53.400;7.608;2024-01-10T03:37:40;103385.56;;;-4.91;100.00
73267;BME280;61495;53.400;7.608;2024-01-10T03:40:06;103389.06;;;-4.92;100.00
73267;BME280;61495;53.400;7.608;2024-01-10T03:42:31;103383.81;;;-4.90;100.00
73267;BME280;61495;53.400;7.608;2024-01-10T03:44:57;103376.94;;;-4.93;100.00
73267;BME280;61495;53.400;7.608;2024-01-10T03:47:22;103373.44;;;-4.93;100.00
73267;BME280;61495;53.400;7.608;2024-01-10T03:49:48;103379.56;;;-4.94;100.00
73267;BME280;61495;53.400;7.608;2024-01-10T03:52:13;103357.25;;;-5.06;100.00
73267;BME280;61495;53.400;7.608;2024-01-10T03:54:38;103390.00;;;-4.93;100.00
73267;BME280;61495;53.400;7.608;2024-01-10T03:57:07;103385.59;;;-4.92;100.00
73267;BME280;61495;53.400;7.608;2024-01-10T03:59:32;103379.53;;;-4.93;100.00
73267;BME280;61495;53.400;7.608;2024-01-10T04:01:58;103381.22;;;-4.92;100.00
73267;BME280;61495;53.400;7.608;2024-01-10T04:04:25;103383.91;;;-4.93;100.00
73267;BME280;61495;53.400;7.608;2024-01-10T04:06:51;103381.31;;;-4.95;100.00
73267;BME280;61495;53.400;7.608;2024-01-10T04:09:17;103371.81;;;-4.97;100.00
73267;BME280;61495;53.400;7.608;2024-01-10T04:11:42;103389.88;;;-4.90;100.00
73267;BME280;61495;53.400;7.608;2024-01-10T04:14:07;103381.13;;;-4.89;100.00
73267;BME280;61495;53.400;7.608;2024-01-10T04:16:33;103384.63;;;-4.90;100.00
73267;BME280;61495;53.400;7.608;2024-01-10T04:18:58;103382.00;;;-4.88;100.00
73267;BME280;61495;53.400;7.608;2024-01-10T04:21:24;103370.66;;;-4.87;100.00
73267;BME280;61495;53.400;7.608;2024-01-10T04:23:49;103375.91;;;-4.89;100.00
73267;BME280;61495;53.400;7.608;2024-01-10T04:26:17;103381.91;;;-4.85;100.00
73267;BME280;61495;53.400;7.608;2024-01-10T04:28:42;103375.72;;;-4.83;100.00
73267;BME280;61495;53.400;7.608;2024-01-10T04:31:07;103375.69;;;-4.81;100.00
73267;BME280;61495;53.400;7.608;2024-01-10T04:33:33;103374.00;;;-4.84;100.00
73267;BME280;61495;53.400;7.608;2024-01-10T04:35:58;103380.94;;;-4.81;100.00
73267;BME280;61495;53.400;7.608;2024-01-10T04:38:24;103381.75;;;-4.81;100.00
73267;BME280;61495;53.400;7.608;2024-01-10T04:40:52;103374.88;;;-4.83;100.00
73267;BME280;61495;53.400;7.608;2024-01-10T04:43:17;103371.38;;;-4.82;100.00
73267;BME280;61495;53.400;7.608;2024-01-10T04:45:42;103367.88;;;-4.81;100.00
73267;BME280;61495;53.400;7.608;2024-01-10T04:48:08;103371.31;;;-4.81;100.00
73267;BME280;61495;53.400;7.608;2024-01-10T04:50:34;103370.47;;;-4.81;100.00
73267;BME280;61495;53.400;7.608;2024-01-10T04:53:00;103374.78;;;-4.80;100.00
73267;BME280;61495;53.400;7.608;2024-01-10T04:55:25;103374.69;;;-4.77;100.00
73267;BME280;61495;53.400;7.608;2024-01-10T04:57:50;103367.78;;;-4.80;100.00
73267;BME280;61495;53.400;7.608;2024-01-10T05:00:16;103371.19;;;-4.76;100.00
73267;BME280;61495;53.400;7.608;2024-01-10T05:02:41;103364.22;;;-4.77;100.00
73267;BME280;61495;53.400;7.608;2024-01-10T05:05:07;103371.09;;;-4.73;100.00
73267;BME280;61495;53.400;7.608;2024-01-10T05:07:32;103372.06;;;-4.77;100.00
73267;BME280;61495;53.400;7.608;2024-01-10T05:09:58;103361.63;;;-4.77;100.00
73267;BME280;61495;53.400;7.608;2024-01-10T05:12:23;103363.28;;;-4.75;100.00
73267;BME280;61495;53.400;7.608;2024-01-10T05:14:48;103363.34;;;-4.76;100.00
73267;BME280;61495;53.400;7.608;2024-01-10T05:17:14;103368.47;;;-4.73;100.00
73267;BME280;61495;53.400;7.608;2024-01-10T05:19:39;103367.63;;;-4.74;100.00
73267;BME280;61495;53.400;7.608;2024-01-10T05:22:05;103370.22;;;-4.74;100.00
73267;BME280;61495;53.400;7.608;2024-01-10T05:24:31;103371.88;;;-4.71;100.00
73267;BME280;61495;53.400;7.608;2024-01-10T05:26:56;103360.63;;;-4.73;100.00
73267;BME280;61495;53.400;7.608;2024-01-10T05:29:22;103369.38;;;-4.74;100.00
73267;BME280;61495;53.400;7.608;2024-01-10T05:31:49;103360.72;;;-4.76;100.00
73267;BME280;61495;53.400;7.608;2024-01-10T05:34:14;103351.22;;;-4.79;100.00
73267;BME280;61495;53.400;7.608;2024-01-10T05:36:39;103352.00;;;-4.75;100.00
73267;BME280;61495;53.400;7.608;2024-01-10T05:39:05;103361.63;;;-4.77;100.00
73267;BME280;61495;53.400;7.608;2024-01-10T05:41:30;103346.84;;;-4.78;100.00
73267;BME280;61495;53.400;7.608;2024-01-10T05:43:56;103356.34;;;-4.76;100.00
73267;BME280;61495;53.400;7.608;2024-01-10T05:46:21;103353.78;;;-4.77;100.00
73267;BME280;61495;53.400;7.608;2024-01-10T05:48:47;103351.31;;;-4.82;100.00
73267;BME280;61495;53.400;7.608;2024-01-10T05:51:13;103350.34;;;-4.79;100.00
73267;BME280;61495;53.400;7.608;2024-01-10T05:53:39;103360.81;;;-4.79;100.00
73267;BME280;61495;53.400;7.608;2024-01-10T05:56:06;103353.88;;;-4.80;100.00
73267;BME280;61495;53.400;7.608;2024-01-10T05:58:31;103358.22;;;-4.81;100.00
73267;BME280;61495;53.400;7.608;2024-01-10T06:00:56;103361.78;;;-4.83;100.00
73267;BME280;61495;53.400;7.608;2024-01-10T06:03:22;103360.03;;;-4.81;100.00
73267;BME280;61495;53.400;7.608;2024-01-10T06:05:47;103365.28;;;-4.83;100.00
73267;BME280;61495;53.400;7.608;2024-01-10T06:08:12;103360.94;;;-4.84;100.00
73267;BME280;61495;53.400;7.608;2024-01-10T06:10:39;103350.53;;;-4.85;100.00
73267;BME280;61495;53.400;7.608;2024-01-10T06:13:04;103348.81;;;-4.86;100.00
73267;BME280;61495;53.400;7.608;2024-01-10T06:15:30;103352.34;;;-4.87;100.00
73267;BME280;61495;53.400;7.608;2024-01-10T06:17:55;103351.63;;;-4.92;100.00
73267;BME280;61495;53.400;7.608;2024-01-10T06:20:20;103349.97;;;-4.95;100.00
73267;BME280;61495;53.400;7.608;2024-01-10T06:22:46;103368.97;;;-4.90;100.00
73267;BME280;61495;53.400;7.608;2024-01-10T06:25:12;103364.59;;;-4.89;100.00
73267;BME280;61495;53.400;7.608;2024-01-10T06:27:37;103366.41;;;-4.91;100.00
73267;BME280;61495;53.400;7.608;2024-01-10T06:30:03;103363.84;;;-4.93;100.00
73267;BME280;61495;53.400;7.608;2024-01-10T06:32:28;103362.03;;;-4.91;100.00
73267;BME280;61495;53.400;7.608;2024-01-10T06:34:54;103375.88;;;-4.87;100.00
73267;BME280;61495;53.400;7.608;2024-01-10T06:37:19;103371.56;;;-4.90;100.00
73267;BME280;61495;53.400;7.608;2024-01-10T06:39:44;103373.28;;;-4.87;100.00
73267;BME280;61495;53.400;7.608;2024-01-10T06:42:10;103368.97;;;-4.90;100.00
73267;BME280;61495;53.400;7.608;2024-01-10T06:44:37;103363.72;;;-4.90;100.00
73267;BME280;61495;53.400;7.608;2024-01-10T06:47:02;103378.41;;;-4.84;100.00
73267;BME280;61495;53.400;7.608;2024-01-10T06:49:29;103371.44;;;-4.85;100.00
73267;BME280;61495;53.400;7.608;2024-01-10T06:51:54;103364.59;;;-4.89;100.00
73267;BME280;61495;53.400;7.608;2024-01-10T06:54:19;103367.09;;;-4.85;100.00
73267;BME280;61495;53.400;7.608;2024-01-10T06:56:45;103379.31;;;-4.87;100.00
73267;BME280;61495;53.400;7.608;2024-01-10T06:59:11;103360.19;;;-4.87;100.00
73267;BME280;61495;53.400;7.608;2024-01-10T07:01:36;103361.09;;;-4.88;100.00
73267;BME280;61495;53.400;7.608;2024-01-10T07:04:02;103363.72;;;-4.88;100.00
73267;BME280;61495;53.400;7.608;2024-01-10T07:06:30;103361.13;;;-4.90;100.00
73267;BME280;61495;53.400;7.608;2024-01-10T07:08:55;103372.41;;;-4.88;100.00
73267;BME280;61495;53.400;7.608;2024-01-10T07:11:20;103369.72;;;-4.86;100.00
73267;BME280;61495;53.400;7.608;2024-01-10T07:13:46;103376.78;;;-4.88;100.00
73267;BME280;61495;53.400;7.608;2024-01-10T07:16:11;103374.25;;;-4.91;100.00
73267;BME280;61495;53.400;7.608;2024-01-10T07:18:40;103376.00;;;-4.92;100.00
73267;BME280;61495;53.400;7.608;2024-01-10T07:21:05;103378.75;;;-4.96;100.00
73267;BME280;61495;53.400;7.608;2024-01-10T07:23:30;103378.00;;;-5.00;100.00
73267;BME280;61495;53.400;7.608;2024-01-10T07:26:02;103372.78;;;-5.01;100.00
73267;BME280;61495;53.400;7.608;2024-01-10T07:28:27;103387.56;;;-5.00;100.00
73267;BME280;61495;53.400;7.608;2024-01-10T07:30:53;103380.63;;;-5.01;100.00
73267;BME280;61495;53.400;7.608;2024-01-10T07:33:18;103380.72;;;-5.05;100.00
73267;BME280;61495;53.400;7.608;2024-01-10T07:35:43;103374.59;;;-5.03;100.00
73267;BME280;61495;53.400;7.608;2024-01-10T07:38:09;103372.06;;;-5.07;100.00
73267;BME280;61495;53.400;7.608;2024-01-10T07:40:35;103367.75;;;-5.08;100.00
73267;BME280;61495;53.400;7.608;2024-01-10T07:43:01;103390.25;;;-5.02;100.00
73267;BME280;61495;53.400;7.608;2024-01-10T07:45:26;103392.97;;;-5.07;100.00
73267;BME280;61495;53.400;7.608;2024-01-10T07:47:52;103381.66;;;-5.07;100.00
73267;BME280;61495;53.400;7.608;2024-01-10T07:50:17;103379.91;;;-5.07;100.00
73267;BME280;61495;53.400;7.608;2024-01-10T07:52:45;103390.44;;;-5.08;100.00
73267;BME280;61495;53.400;7.608;2024-01-10T07:55:11;103386.13;;;-5.11;100.00
73267;BME280;61495;53.400;7.608;2024-01-10T07:57:37;103386.03;;;-5.08;100.00
73267;BME280;61495;53.400;7.608;2024-01-10T08:00:05;103378.25;;;-5.09;100.00
73267;BME280;61495;53.400;7.608;2024-01-10T08:02:33;103377.38;;;-5.10;100.00
73267;BME280;61495;53.400;7.608;2024-01-10T08:05:00;103376.50;;;-5.09;100.00
73267;BME280;61495;53.400;7.608;2024-01-10T08:07:25;103382.63;;;-5.10;100.00
73267;BME280;61495;53.400;7.608;2024-01-10T08:09:51;103385.28;;;-5.11;100.00
73267;BME280;61495;53.400;7.608;2024-01-10T08:12:16;103389.59;;;-5.10;100.00
73267;BME280;61495;53.400;7.608;2024-01-10T08:14:42;103385.28;;;-5.11;100.00
73267;BME280;61495;53.400;7.608;2024-01-10T08:17:11;103386.19;;;-5.12;100.00
73267;BME280;61495;53.400;7.608;2024-01-10T08:19:36;103382.63;;;-5.10;100.00
73267;BME280;61495;53.400;7.608;2024-01-10T08:22:03;103391.25;;;-5.08;100.00
73267;BME280;61495;53.400;7.608;2024-01-10T08:24:28;103385.28;;;-5.11;100.00
73267;BME280;61495;53.400;7.608;2024-01-10T08:26:53;103375.63;;;-5.09;100.00
73267;BME280;61495;53.400;7.608;2024-01-10T08:29:19;103373.06;;;-5.11;100.00
73267;BME280;61495;53.400;7.608;2024-01-10T08:31:45;103372.06;;;-5.07;100.00
73267;BME280;61495;53.400;7.608;2024-01-10T08:34:11;103368.56;;;-5.06;100.00
73267;BME280;61495;53.400;7.608;2024-01-10T08:36:36;103373.81;;;-5.06;100.00
73267;BME280;61495;53.400;7.608;2024-01-10T08:39:02;103364.28;;;-5.08;100.00
73267;BME280;61495;53.400;7.608;2024-01-10T08:41:28;103365.03;;;-5.05;100.00
73267;BME280;61495;53.400;7.608;2024-01-10T08:43:54;103368.66;;;-5.09;100.00
73267;BME280;61495;53.400;7.608;2024-01-10T08:46:19;103381.47;;;-4.99;100.00
73267;BME280;61495;53.400;7.608;2024-01-10T08:48:45;103384.00;;;-4.96;100.00
73267;BME280;61495;53.400;7.608;2024-01-10T08:51:12;103376.94;;;-4.94;100.00
73267;BME280;61495;53.400;7.608;2024-01-10T08:53:41;103388.19;;;-4.92;100.00
73267;BME280;61495;53.400;7.608;2024-01-10T08:56:15;103382.97;;;-4.92;100.00
73267;BME280;61495;53.400;7.608;2024-01-10T08:58:40;103374.31;;;-4.93;100.00
73267;BME280;61495;53.400;7.608;2024-01-10T09:01:05;103373.34;;;-4.90;100.00
73267;BME280;61495;53.400;7.608;2024-01-10T09:03:31;103382.03;;;-4.90;100.00
73267;BME280;61495;53.400;7.608;2024-01-10T09:05:56;103369.81;;;-4.89;100.00
73267;BME280;61495;53.400;7.608;2024-01-10T09:08:22;103383.72;;;-4.87;100.00
73267;BME280;61495;53.400;7.608;2024-01-10T09:10:47;103378.41;;;-4.84;100.00
73267;BME280;61495;53.400;7.608;2024-01-10T09:13:14;103383.56;;;-4.83;100.00
73267;BME280;61495;53.400;7.608;2024-01-10T09:15:40;103374.00;;;-4.84;100.00
73267;BME280;61495;53.400;7.608;2024-01-10T09:18:05;103383.53;;;-4.81;100.00
73267;BME280;61495;53.400;7.608;2024-01-10T09:20:31;103386.06;;;-4.78;100.00
73267;BME280;61495;53.400;7.608;2024-01-10T09:22:56;103389.59;;;-4.81;100.00
73267;BME280;61495;53.400;7.608;2024-01-10T09:25:22;103385.16;;;-4.77;100.00
73267;BME280;61495;53.400;7.608;2024-01-10T09:27:47;103381.63;;;-4.76;100.00
73267;BME280;61495;53.400;7.608;2024-01-10T09:30:13;103378.97;;;-4.75;100.00
73267;BME280;61495;53.400;7.608;2024-01-10T09:32:41;103372.81;;;-4.72;100.00
73267;BME280;61495;53.400;7.608;2024-01-10T09:35:07;103369.28;;;-4.71;100.00
73267;BME280;61495;53.400;7.608;2024-01-10T09:37:33;103374.41;;;-4.68;100.00
73267;BME280;61495;53.400;7.608;2024-01-10T09:39:58;103371.41;;;-4.55;100.00
73267;BME280;61495;53.400;7.608;2024-01-10T09:42:24;103359.88;;;-4.49;100.00
73267;BME280;61495;53.400;7.608;2024-01-10T09:44:53;103367.34;;;-4.37;100.00
73267;BME280;61495;53.400;7.608;2024-01-10T09:47:20;103348.22;;;-4.39;100.00
73267;BME280;61495;53.400;7.608;2024-01-10T09:49:45;103367.66;;;-4.20;100.00
73267;BME280;61495;53.400;7.608;2024-01-10T09:52:17;103362.41;;;-4.20;100.00
73267;BME280;61495;53.400;7.608;2024-01-10T09:54:52;103365.63;;;-4.12;100.00
73267;BME280;61495;53.400;7.608;2024-01-10T09:57:18;103361.97;;;-4.06;100.00
73267;BME280;61495;53.400;7.608;2024-01-10T09:59:47;103362.59;;;-3.98;100.00
73267;BME280;61495;53.400;7.608;2024-01-10T10:02:13;103370.16;;;-3.90;100.00
73267;BME280;61495;53.400;7.608;2024-01-10T10:04:42;103362.28;;;-3.89;100.00
73267;BME280;61495;53.400;7.608;2024-01-10T10:07:10;103363.72;;;-3.80;100.00
73267;BME280;61495;53.400;7.608;2024-01-10T10:09:35;103364.31;;;-3.72;100.00
73267;BME280;61495;53.400;7.608;2024-01-10T10:12:00;103357.09;;;-3.66;100.00
73267;BME280;61495;53.400;7.608;2024-01-10T10:14:28;103353.31;;;-3.57;100.00
73267;BME280;61495;53.400;7.608;2024-01-10T10:16:54;103345.38;;;-3.56;100.00
73267;BME280;61495;53.400;7.608;2024-01-10T10:19:24;103352.75;;;-3.42;100.00
73267;BME280;61495;53.400;7.608;2024-01-10T10:21:50;103362.06;;;-3.33;100.00
73267;BME280;61495;53.400;7.608;2024-01-10T10:24:16;103343.41;;;-3.26;100.00
73267;BME280;61495;53.400;7.608;2024-01-10T10:26:42;103355.50;;;-3.22;100.00
73267;BME280;61495;53.400;7.608;2024-01-10T10:29:07;103344.84;;;-3.17;100.00
73267;BME280;61495;53.400;7.608;2024-01-10T10:31:33;103354.94;;;-3.07;100.00
73267;BME280;61495;53.400;7.608;2024-01-10T10:34:01;103350.22;;;-2.97;100.00
73267;BME280;61495;53.400;7.608;2024-01-10T10:36:30;103352.66;;;-2.93;100.00
73267;BME280;61495;53.400;7.608;2024-01-10T10:38:59;103356.88;;;-2.89;100.00
73267;BME280;61495;53.400;7.608;2024-01-10T10:41:27;103355.84;;;-2.85;100.00
73267;BME280;61495;53.400;7.608;2024-01-10T10:43:55;103352.84;;;-2.75;100.00
73267;BME280;61495;53.400;7.608;2024-01-10T10:46:20;103354.88;;;-2.60;100.00
73267;BME280;61495;53.400;7.608;2024-01-10T10:48:48;103337.06;;;-2.52;100.00
73267;BME280;61495;53.400;7.608;2024-01-10T10:51:26;103350.88;;;-2.47;100.00
73267;BME280;61495;53.400;7.608;2024-01-10T10:53:53;103342.81;;;-2.43;100.00
73267;BME280;61495;53.400;7.608;2024-01-10T10:56:20;103346.81;;;-2.34;100.00
73267;BME280;61495;53.400;7.608;2024-01-10T10:58:45;103334.72;;;-2.16;100.00
73267;BME280;61495;53.400;7.608;2024-01-10T11:01:12;103354.66;;;-2.11;100.00
73267;BME280;61495;53.400;7.608;2024-01-10T11:03:38;103339.72;;;-2.10;100.00
73267;BME280;61495;53.400;7.608;2024-01-10T11:06:06;103338.94;;;-2.12;100.00
73267;BME280;61495;53.400;7.608;2024-01-10T11:08:37;103339.47;;;-2.04;100.00
73267;BME280;61495;53.400;7.608;2024-01-10T11:11:06;103332.44;;;-2.04;100.00
73267;BME280;61495;53.400;7.608;2024-01-10T11:14:01;103320.53;;;-1.91;100.00
73267;BME280;61495;53.400;7.608;2024-01-10T11:24:18;103330.28;;;-1.74;100.00
73267;BME280;61495;53.400;7.608;2024-01-10T11:26:44;103330.38;;;-1.76;99.84
73267;BME280;61495;53.400;7.608;2024-01-10T11:29:10;103332.78;;;-1.71;99.05
73267;BME280;61495;53.400;7.608;2024-01-10T11:31:35;103323.00;;;-1.67;98.50
73267;BME280;61495;53.400;7.608;2024-01-10T11:34:03;103323.78;;;-1.65;99.46
73267;BME280;61495;53.400;7.608;2024-01-10T11:36:29;103333.06;;;-1.77;96.37
73267;BME280;61495;53.400;7.608;2024-01-10T11:38:58;103319.75;;;-1.73;97.61
73267;BME280;61495;53.400;7.608;2024-01-10T11:46:41;103314.91;;;-1.63;98.74
73267;BME280;61495;53.400;7.608;2024-01-10T11:49:11;103312.09;;;-1.58;98.91
73267;BME280;61495;53.400;7.608;2024-01-10T11:51:39;103307.69;;;-1.58;98.50
73267;BME280;61495;53.400;7.608;2024-01-10T11:54:06;103308.94;;;-1.46;99.13
73267;BME280;61495;53.400;7.608;2024-01-10T11:56:38;103308.84;;;-1.45;97.92
73267;BME280;61495;53.400;7.608;2024-01-10T11:59:10;103297.47;;;-1.45;97.36
73267;BME280;61495;53.400;7.608;2024-01-10T12:01:42;103307.72;;;-1.39;98.85
73267;BME280;61495;53.400;7.608;2024-01-10T12:04:13;103306.25;;;-1.26;97.22
73267;BME280;61495;53.400;7.608;2024-01-10T12:06:39;103301.91;;;-1.27;97.57
73267;BME280;61495;53.400;7.608;2024-01-10T12:09:05;103301.22;;;-1.31;97.50
73267;BME280;61495;53.400;7.608;2024-01-10T12:11:34;103306.88;;;-1.21;98.89
73267;BME280;61495;53.400;7.608;2024-01-10T12:14:01;103298.94;;;-1.20;97.91
73267;BME280;61495;53.400;7.608;2024-01-10T12:16:27;103303.47;;;-1.23;97.65
73267;BME280;61495;53.400;7.608;2024-01-10T12:18:52;103289.16;;;-1.16;98.20
73267;BME280;61495;53.400;7.608;2024-01-10T12:21:17;103299.81;;;-1.19;98.01
73267;BME280;61495;53.400;7.608;2024-01-10T12:23:43;103303.22;;;-1.17;97.91
73267;BME280;61495;53.400;7.608;2024-01-10T12:26:09;103297.03;;;-1.16;98.27
73267;BME280;61495;53.400;7.608;2024-01-10T12:28:37;103291.81;;;-1.18;96.17
73267;BME280;61495;53.400;7.608;2024-01-10T12:31:06;103293.75;;;-1.21;95.47
73267;BME280;61495;53.400;7.608;2024-01-10T12:33:37;103282.72;;;-1.29;95.14
73267;BME280;61495;53.400;7.608;2024-01-10T12:36:11;103282.31;;;-1.20;95.73
73267;BME280;61495;53.400;7.608;2024-01-10T12:38:40;103280.31;;;-1.15;96.09
73267;BME280;61495;53.400;7.608;2024-01-10T12:41:06;103283.50;;;-1.08;95.04
73267;BME280;61495;53.400;7.608;2024-01-10T12:43:34;103289.63;;;-1.08;94.98
73267;BME280;61495;53.400;7.608;2024-01-10T12:46:06;103290.53;;;-1.09;94.66
73267;BME280;61495;53.400;7.608;2024-01-10T12:48:33;103287.16;;;-1.11;94.53
73267;BME280;61495;53.400;7.608;2024-01-10T12:51:01;103272.81;;;-1.04;95.42